createdAt,value
2019-05-30T00:01:06.329Z,5.99
2019-05-30T00:04:29.533Z,5.86
2019-05-30T00:07:46.179Z,5.87
2019-05-30T00:11:03.135Z,5.95
2019-05-30T00:14:19.946Z,5.91
2019-05-30T00:17:36.714Z,5.72
2019-05-30T00:20:54.599Z,5.58
2019-05-30T00:24:11.316Z,5.52
2019-05-30T00:27:27.922Z,5.41
2019-05-30T00:30:44.567Z,5.38
2019-05-30T00:34:05.943Z,5.36
2019-05-30T00:37:22.783Z,5.27
2019-05-30T00:40:39.470Z,5.28
2019-05-30T00:43:56.207Z,5.20
2019-05-30T00:47:12.791Z,5.16
2019-05-30T00:50:29.520Z,5.14
2019-05-30T00:53:46.243Z,5.11
2019-05-30T00:57:03.044Z,4.99
2019-05-30T01:00:20.216Z,4.97
2019-05-30T01:03:36.879Z,4.83
2019-05-30T01:06:53.585Z,4.78
2019-05-30T01:10:11.814Z,4.81
2019-05-30T01:13:28.474Z,4.73
2019-05-30T01:16:45.203Z,4.71
2019-05-30T01:20:03.121Z,4.66
2019-05-30T01:23:20.063Z,4.59
2019-05-30T01:26:36.742Z,4.64
2019-05-30T01:29:53.412Z,4.57
2019-05-30T01:33:10.165Z,4.47
2019-05-30T01:36:26.887Z,4.44
2019-05-30T01:39:43.794Z,4.51
2019-05-30T01:43:01.991Z,4.43
2019-05-30T01:46:19.002Z,4.34
2019-05-30T01:49:35.766Z,4.30
2019-05-30T01:52:52.496Z,4.29
2019-05-30T01:56:09.303Z,4.22
2019-05-30T01:59:26.033Z,4.25
2019-05-30T02:02:42.605Z,4.25
2019-05-30T02:05:59.191Z,4.18
2019-05-30T02:09:17.360Z,4.11
2019-05-30T02:12:34.087Z,4.09
2019-05-30T02:15:50.698Z,4.10
2019-05-30T02:19:07.944Z,4.10
2019-05-30T02:22:24.578Z,4.04
2019-05-30T02:25:41.327Z,4.00
2019-05-30T02:28:58.015Z,4.03
2019-05-30T02:32:15.032Z,4.01
2019-05-30T02:35:31.643Z,3.99
2019-05-30T02:38:49.270Z,3.92
2019-05-30T02:42:07.303Z,3.85
2019-05-30T02:45:24.540Z,3.77
2019-05-30T02:48:57.233Z,3.75
2019-05-30T02:51:59.691Z,3.71
2019-05-30T02:55:17.071Z,3.71
2019-05-30T02:58:33.728Z,3.65
2019-05-30T03:02:00.903Z,3.58
2019-05-30T03:05:12.129Z,3.62
2019-05-30T03:08:27.301Z,3.71
2019-05-30T03:11:44.158Z,3.74
2019-05-30T03:15:02.499Z,3.86
2019-05-30T03:18:19.300Z,3.85
2019-05-30T03:21:35.941Z,3.89
2019-05-30T03:24:52.563Z,3.90
2019-05-30T03:28:11.216Z,3.92
2019-05-30T03:31:30.172Z,3.87
2019-05-30T03:34:47.115Z,3.95
2019-05-30T03:38:05.644Z,4.03
2019-05-30T03:41:22.350Z,4.06
2019-05-30T03:44:39.162Z,4.18
2019-05-30T03:48:01.857Z,4.26
2019-05-30T03:51:20.486Z,4.37
2019-05-30T03:54:38.468Z,4.40
2019-05-30T03:58:12.801Z,4.48
2019-05-30T04:01:38.293Z,4.61
2019-05-30T04:05:11.927Z,4.65
2019-05-30T04:08:30.351Z,4.75
2019-05-30T04:11:59.222Z,4.85
2019-05-30T04:15:35.064Z,4.93
2019-05-30T04:18:51.740Z,5.07
2019-05-30T04:22:09.358Z,5.24
2019-05-30T04:25:26.046Z,5.40
2019-05-30T04:28:43.386Z,5.55
2019-05-30T04:32:00.071Z,5.74
2019-05-30T04:35:18.878Z,5.87
2019-05-30T04:38:35.991Z,6.03
2019-05-30T04:41:53.076Z,6.24
2019-05-30T04:45:13.759Z,6.36
2019-05-30T04:48:30.438Z,6.52
2019-05-30T04:51:51.262Z,6.70
2019-05-30T04:55:11.181Z,6.80
2019-05-30T04:58:29.105Z,6.92
2019-05-30T05:01:46.147Z,7.00
2019-05-30T05:05:02.855Z,7.13
2019-05-30T05:08:27.552Z,7.25
2019-05-30T05:11:44.286Z,7.37
2019-05-30T05:15:07.786Z,7.57
2019-05-30T05:18:24.614Z,7.78
2019-05-30T05:21:41.235Z,7.88
2019-05-30T05:24:57.842Z,8.03
2019-05-30T05:28:15.756Z,8.04
2019-05-30T05:31:32.461Z,8.12
2019-05-30T05:34:52.054Z,8.31
2019-05-30T05:38:09.926Z,8.47
2019-05-30T05:41:26.252Z,8.62
2019-05-30T05:44:43.135Z,8.76
2019-05-30T05:47:59.945Z,8.84
2019-05-30T05:51:18.491Z,8.93
2019-05-30T05:54:37.260Z,9.04
2019-05-30T05:57:54.341Z,9.09
2019-05-30T06:01:11.255Z,9.24
2019-05-30T06:04:27.887Z,9.33
2019-05-30T06:07:44.538Z,9.45
2019-05-30T06:11:02.603Z,9.68
2019-05-30T06:14:19.855Z,9.76
2019-05-30T06:17:36.542Z,9.86
2019-05-30T06:20:53.170Z,9.94
2019-05-30T06:24:10.099Z,9.98
2019-05-30T06:27:26.690Z,10.12
2019-05-30T06:30:43.415Z,10.16
2019-05-30T06:34:00.092Z,10.29
2019-05-30T06:37:16.721Z,10.41
2019-05-30T06:40:33.314Z,10.49
2019-05-30T06:43:50.129Z,10.54
2019-05-30T06:47:06.787Z,10.66
2019-05-30T06:50:24.709Z,10.90
2019-05-30T06:53:41.498Z,11.00
2019-05-30T06:56:58.201Z,11.12
2019-05-30T07:00:15.609Z,11.12
2019-05-30T07:03:32.692Z,11.22
2019-05-30T07:06:50.373Z,11.32
2019-05-30T07:10:07.799Z,11.46
2019-05-30T07:13:25.216Z,11.51
2019-05-30T07:16:42.120Z,11.56
2019-05-30T07:19:58.806Z,11.64
2019-05-30T07:23:15.659Z,11.92
2019-05-30T07:26:34.005Z,12.05
2019-05-30T07:29:50.784Z,12.13
2019-05-30T07:33:07.389Z,12.13
2019-05-30T07:36:24.165Z,12.23
2019-05-30T07:39:40.769Z,12.53
2019-05-30T07:42:57.519Z,12.57
2019-05-30T07:46:14.282Z,12.57
2019-05-30T07:49:30.893Z,12.69
2019-05-30T07:52:47.649Z,12.69
2019-05-30T07:56:04.554Z,12.83
2019-05-30T07:59:21.603Z,12.91
2019-05-30T08:02:38.550Z,12.83
2019-05-30T08:05:55.195Z,12.95
2019-05-30T08:09:13.038Z,13.22
2019-05-30T08:12:30.122Z,13.32
2019-05-30T08:15:46.896Z,13.20
2019-05-30T08:19:03.584Z,13.40
2019-05-30T08:22:20.487Z,13.53
2019-05-30T08:25:38.397Z,13.40
2019-05-30T08:28:55.191Z,13.44
2019-05-30T08:32:11.945Z,13.48
2019-05-30T08:35:39.178Z,13.68
2019-05-30T08:38:48.233Z,13.86
2019-05-30T08:42:05.120Z,13.64
2019-05-30T08:45:22.247Z,13.84
2019-05-30T08:48:40.293Z,13.95
2019-05-30T08:51:57.005Z,13.94
2019-05-30T08:55:16.453Z,13.97
2019-05-30T08:58:33.108Z,14.08
2019-05-30T09:01:52.994Z,14.25
2019-05-30T09:05:08.556Z,14.25
2019-05-30T09:08:25.167Z,14.14
2019-05-30T09:11:42.334Z,14.24
2019-05-30T09:14:59.152Z,14.24
2019-05-30T09:18:16.090Z,14.33
2019-05-30T09:21:32.724Z,14.46
2019-05-30T09:24:49.407Z,14.38
2019-05-30T09:28:06.034Z,14.57
2019-05-30T09:31:22.875Z,14.56
2019-05-30T09:34:40.398Z,14.57
2019-05-30T09:37:58.095Z,14.61
2019-05-30T09:41:14.770Z,14.84
2019-05-30T09:44:31.476Z,14.80
2019-05-30T09:47:49.287Z,14.91
2019-05-30T09:51:06.316Z,14.89
2019-05-30T09:54:22.966Z,15.04
2019-05-30T09:57:39.752Z,15.13
2019-05-30T10:00:56.436Z,15.19
2019-05-30T10:04:13.030Z,15.37
2019-05-30T10:07:29.742Z,15.49
2019-05-30T10:10:47.708Z,15.56
2019-05-30T10:14:04.921Z,15.66
2019-05-30T10:17:21.557Z,15.76
2019-05-30T10:20:38.326Z,15.67
2019-05-30T10:23:55.115Z,15.79
2019-05-30T10:27:12.557Z,15.99
2019-05-30T10:30:31.045Z,15.91
2019-05-30T10:33:49.215Z,16.01
2019-05-30T10:37:07.104Z,16.05
2019-05-30T10:40:24.297Z,16.20
2019-05-30T10:43:41.132Z,16.31
2019-05-30T10:46:57.946Z,16.43
2019-05-30T10:50:14.967Z,16.46
2019-05-30T10:53:31.570Z,16.59
2019-05-30T10:56:49.558Z,16.67
2019-05-30T11:00:09.441Z,16.87
2019-05-30T11:03:25.295Z,16.66
2019-05-30T11:07:04.835Z,16.62
2019-05-30T11:10:17.807Z,17.06
2019-05-30T11:13:34.440Z,17.24
2019-05-30T11:16:51.734Z,17.46
2019-05-30T11:20:08.677Z,17.31
2019-05-30T11:23:25.389Z,17.34
2019-05-30T11:26:42.100Z,17.44
2019-05-30T11:29:59.023Z,17.62
2019-05-30T11:33:15.668Z,17.57
2019-05-30T11:36:32.321Z,17.53
2019-05-30T11:39:55.792Z,17.48
2019-05-30T11:43:12.387Z,17.28
2019-05-30T11:46:29.160Z,17.54
2019-05-30T11:49:45.775Z,17.75
2019-05-30T11:53:11.306Z,17.84
2019-05-30T11:56:31.983Z,17.78
2019-05-30T11:59:50.093Z,17.75
2019-05-30T12:03:06.890Z,17.96
2019-05-30T12:06:23.500Z,17.76
2019-05-30T12:09:40.244Z,17.54
2019-05-30T12:12:57.353Z,18.13
2019-05-30T12:16:14.279Z,18.44
2019-05-30T12:19:30.916Z,18.67
2019-05-30T12:22:47.550Z,18.48
2019-05-30T12:26:04.182Z,18.84
2019-05-30T12:29:20.899Z,18.54
2019-05-30T12:32:37.615Z,18.64
2019-05-30T12:35:54.445Z,19.00
2019-05-30T12:39:12.175Z,18.82
2019-05-30T12:42:28.947Z,18.94
2019-05-30T12:45:45.645Z,18.93
2019-05-30T12:49:03.594Z,18.82
2019-05-30T12:52:20.499Z,18.95
2019-05-30T12:55:37.780Z,18.93
2019-05-30T12:58:54.578Z,19.12
2019-05-30T13:02:11.464Z,18.94
2019-05-30T13:05:28.976Z,19.25
2019-05-30T13:08:45.604Z,19.59
2019-05-30T13:12:02.633Z,19.42
2019-05-30T13:15:19.413Z,19.02
2019-05-30T13:18:36.156Z,19.34
2019-05-30T13:21:53.831Z,19.39
2019-05-30T13:25:13.968Z,19.39
2019-05-30T13:28:30.690Z,19.79
2019-05-30T13:31:47.294Z,20.15
2019-05-30T13:35:07.641Z,20.16
2019-05-30T13:38:27.034Z,19.95
2019-05-30T13:41:43.868Z,19.80
2019-05-30T13:45:02.029Z,20.56
2019-05-30T13:48:19.111Z,20.95
2019-05-30T13:51:35.809Z,21.24
2019-05-30T13:54:52.530Z,20.93
2019-05-30T13:58:10.528Z,21.28
2019-05-30T14:01:27.690Z,21.37
2019-05-30T14:04:44.420Z,21.28
2019-05-30T14:08:02.649Z,21.09
2019-05-30T14:11:19.552Z,21.50
2019-05-30T14:14:36.155Z,21.51
2019-05-30T14:17:52.896Z,21.18
2019-05-30T14:21:09.576Z,21.52
2019-05-30T14:24:26.347Z,21.70
2019-05-30T14:27:43.098Z,21.69
2019-05-30T14:30:59.787Z,21.85
2019-05-30T14:34:16.515Z,21.75
2019-05-30T14:37:33.246Z,21.71
2019-05-30T14:40:49.840Z,21.98
2019-05-30T14:44:07.164Z,21.47
2019-05-30T14:47:26.658Z,21.42
2019-05-30T14:50:43.734Z,21.84
2019-05-30T14:54:00.503Z,21.62
2019-05-30T14:57:17.591Z,21.34
2019-05-30T15:00:34.346Z,21.48
2019-05-30T15:03:51.155Z,21.49
2019-05-30T15:07:07.849Z,21.67
2019-05-30T15:10:24.789Z,21.66
2019-05-30T15:13:41.493Z,21.93
2019-05-30T15:16:58.608Z,22.17
2019-05-30T15:20:17.738Z,22.25
2019-05-30T15:23:35.153Z,22.30
2019-05-30T15:26:51.851Z,22.47
2019-05-30T15:30:12.764Z,22.34
2019-05-30T15:33:31.017Z,22.27
2019-05-30T15:36:47.777Z,22.20
2019-05-30T15:40:04.909Z,22.44
2019-05-30T15:43:21.631Z,22.18
2019-05-30T15:46:38.459Z,21.88
2019-05-30T15:49:55.214Z,21.90
2019-05-30T15:53:13.100Z,22.31
2019-05-30T15:56:29.877Z,22.39
2019-05-30T15:59:46.503Z,22.05
2019-05-30T16:03:03.233Z,21.32
2019-05-30T16:06:20.815Z,21.75
2019-05-30T16:09:46.735Z,21.78
2019-05-30T16:12:55.996Z,21.74
2019-05-30T16:16:13.535Z,21.64
2019-05-30T16:19:30.369Z,21.63
2019-05-30T16:22:47.176Z,21.61
2019-05-30T16:26:04.049Z,21.57
2019-05-30T16:29:21.884Z,21.71
2019-05-30T16:32:38.747Z,21.70
2019-05-30T16:35:55.624Z,21.84
2019-05-30T16:39:20.404Z,21.76
2019-05-30T16:42:39.987Z,21.28
2019-05-30T16:45:56.631Z,21.08
2019-05-30T16:49:14.360Z,20.84
2019-05-30T16:52:31.738Z,20.90
2019-05-30T16:56:07.723Z,21.16
2019-05-30T16:59:55.178Z,21.33
2019-05-30T17:03:34.097Z,20.79
2019-05-30T17:06:51.016Z,20.64
2019-05-30T17:10:21.374Z,20.71
2019-05-30T17:13:26.918Z,20.51
2019-05-30T17:16:43.711Z,20.32
2019-05-30T17:20:00.668Z,20.19
2019-05-30T17:23:24.846Z,20.08
2019-05-30T17:26:45.242Z,19.90
2019-05-30T17:30:01.995Z,19.66
2019-05-30T17:33:20.741Z,19.57
2019-05-30T17:36:38.715Z,19.47
2019-05-30T17:39:55.649Z,19.34
2019-05-30T17:43:12.545Z,19.17
2019-05-30T17:46:30.099Z,18.92
2019-05-30T17:49:48.526Z,18.77
2019-05-30T17:53:05.152Z,18.67
2019-05-30T17:56:23.973Z,18.47
2019-05-30T17:59:40.784Z,18.42
2019-05-30T18:02:57.983Z,18.17
2019-05-30T18:06:14.982Z,18.09
2019-05-30T18:09:31.582Z,17.87
2019-05-30T18:12:48.230Z,17.58
2019-05-30T18:16:05.454Z,17.34
2019-05-30T18:19:23.322Z,17.21
2019-05-30T18:22:43.500Z,17.04
2019-05-30T18:29:40.180Z,16.68
2019-05-30T18:32:57.116Z,16.48
2019-05-30T18:36:15.625Z,16.32
2019-05-30T18:39:32.886Z,16.16
2019-05-30T18:42:49.847Z,15.98
2019-05-30T18:46:06.541Z,15.77
2019-05-30T18:49:41.327Z,15.59
2019-05-30T18:53:11.728Z,15.45
2019-05-30T19:00:16.034Z,15.12
2019-05-30T19:04:01.685Z,14.94
2019-05-30T19:11:00.795Z,14.63
2019-05-30T19:15:08.837Z,14.48
2019-05-30T19:19:10.080Z,14.29
2019-05-30T19:22:41.740Z,14.09
2019-05-30T19:27:12.464Z,13.93
2019-05-30T19:30:30.622Z,13.75
2019-05-30T19:33:48.590Z,13.57
2019-05-30T19:37:05.469Z,13.45
2019-05-30T19:40:24.863Z,13.32
2019-05-30T19:43:40.878Z,13.21
2019-05-30T19:46:58.348Z,13.08
2019-05-30T19:50:16.448Z,12.94
2019-05-30T19:53:34.954Z,12.82
2019-05-30T19:56:53.001Z,12.74
2019-05-30T20:00:11.140Z,12.66
2019-05-30T20:03:38.529Z,12.55
2019-05-30T20:06:48.316Z,12.47
2019-05-30T20:14:11.012Z,12.30
2019-05-30T20:17:30.018Z,12.21
2019-05-30T20:20:56.725Z,12.13
2019-05-30T20:24:05.516Z,12.05
2019-05-30T20:27:22.185Z,11.98
2019-05-30T20:30:39.216Z,11.92
2019-05-30T20:33:58.563Z,11.89
2019-05-30T20:37:15.621Z,11.87
2019-05-30T20:40:33.050Z,11.86
2019-05-30T20:43:49.802Z,11.78
2019-05-30T20:47:06.672Z,11.69
2019-05-30T20:50:23.799Z,11.61
2019-05-30T20:53:41.258Z,11.54
2019-05-30T20:56:57.874Z,11.47
2019-05-30T21:00:20.235Z,11.41
2019-05-30T21:03:44.543Z,11.34
2019-05-30T21:07:03.441Z,11.27
2019-05-30T21:10:20.274Z,11.22
2019-05-30T21:13:59.813Z,11.15
2019-05-30T21:17:17.230Z,11.09
2019-05-30T21:20:37.855Z,11.05
2019-05-30T21:23:55.421Z,10.99
2019-05-30T21:27:12.982Z,10.90
2019-05-30T21:30:31.540Z,10.85
2019-05-30T21:33:48.488Z,10.81
2019-05-30T21:37:05.430Z,10.79
2019-05-30T21:40:22.452Z,10.76
2019-05-30T21:43:40.308Z,10.74
2019-05-30T21:46:56.984Z,10.66
2019-05-30T21:50:13.890Z,10.65
2019-05-30T21:53:30.759Z,10.66
2019-05-30T21:56:48.437Z,10.66
2019-05-30T22:00:06.673Z,10.66
2019-05-30T22:03:24.150Z,10.61
2019-05-30T22:06:40.942Z,10.56
2019-05-30T22:09:57.616Z,10.52
2019-05-30T22:13:14.380Z,10.50
2019-05-30T22:16:31.060Z,10.47
2019-05-30T22:19:47.916Z,10.45
2019-05-30T22:23:04.594Z,10.43
2019-05-30T22:26:21.315Z,10.39
2019-05-30T22:29:40.410Z,10.35
2019-05-30T22:32:56.274Z,10.35
2019-05-30T22:36:14.949Z,10.32
2019-05-30T22:39:31.589Z,10.30
2019-05-30T22:42:48.273Z,10.31
2019-05-30T22:46:04.921Z,10.34
2019-05-30T22:49:21.598Z,10.41
2019-05-30T22:52:38.408Z,10.42
2019-05-30T22:55:55.083Z,10.40
2019-05-30T22:59:11.728Z,10.40
2019-05-30T23:02:28.457Z,10.40
2019-05-30T23:05:45.330Z,10.35
2019-05-30T23:09:01.968Z,10.38
2019-05-30T23:12:18.608Z,10.34
2019-05-30T23:15:35.386Z,10.29
2019-05-30T23:18:52.643Z,10.30
2019-05-30T23:22:09.275Z,10.32
2019-05-30T23:25:27.400Z,10.34
2019-05-30T23:28:44.048Z,10.31
2019-05-30T23:32:00.668Z,10.32
2019-05-30T23:35:17.671Z,10.34
2019-05-30T23:38:34.477Z,10.33
2019-05-30T23:41:51.135Z,10.31
2019-05-30T23:45:07.775Z,10.33
2019-05-30T23:48:24.388Z,10.38
2019-05-30T23:51:41.391Z,10.36
2019-05-30T23:54:58.339Z,10.36
2019-05-30T23:58:14.983Z,10.39
